Time;durP1;ratioP1;P1;durP2;ratioP2;P2;SDS_P1;SDS_P2;PMS_P1;PMS_P2;Temp;Humidity;BMP_temperature;BMP_pressure;BME280_temperature;BME280_humidity;BME280_pressure;Samples;Min_cycle;Max_cycle;Signal;HPM_P1;HPM_P2
2023/01/20 00:01:11;;;;;;;77.82;25.88;;;;;;;1.36;95.40;99370.00;6156859;23;20072;-91
2023/01/20 00:03:39;;;;;;;74.97;26.88;;;;;;;1.33;95.98;99380.63;6155467;23;20023;-91
2023/01/20 00:06:06;;;;;;;77.60;28.60;;;;;;;1.31;96.14;99378.09;6154750;23;20024;-91
2023/01/20 00:08:33;;;;;;;82.88;28.45;;;;;;;1.37;95.84;99382.13;6154319;23;20105;-92
2023/01/20 00:11:06;;;;;;;70.38;26.55;;;;;;;1.36;95.69;99378.69;6181389;23;20016;-92
2023/01/20 00:13:33;;;;;;;73.63;26.95;;;;;;;1.39;95.47;99380.28;6129877;23;20026;-91
2023/01/20 00:16:05;;;;;;;71.10;25.92;;;;;;;1.38;95.33;99382.06;6131665;23;20017;-92
2023/01/20 00:18:33;;;;;;;68.25;26.15;;;;;;;1.41;95.50;99381.88;6156043;23;20024;-92
2023/01/20 00:21:08;;;;;;;61.58;24.88;;;;;;;1.37;95.71;99385.56;6131822;23;20043;-92
2023/01/20 00:23:35;;;;;;;69.45;24.38;;;;;;;1.38;95.88;99383.81;6128865;23;20024;-91
2023/01/20 00:26:06;;;;;;;69.70;25.42;;;;;;;1.39;95.46;99393.34;6156365;23;20444;-92
2023/01/20 00:28:34;;;;;;;67.30;24.95;;;;;;;1.40;95.78;99395.03;6155714;23;20020;-92
2023/01/20 00:31:20;;;;;;;64.57;24.63;;;;;;;1.33;95.92;99393.72;6180335;23;20025;-91
2023/01/20 00:33:49;;;;;;;62.88;25.08;;;;;;;1.41;95.23;99394.09;6178644;23;20028;-90
2023/01/20 00:36:17;;;;;;;71.63;24.42;;;;;;;1.39;95.03;99399.41;6157076;23;20020;-92
2023/01/20 00:38:43;;;;;;;56.10;22.80;;;;;;;1.40;95.31;99406.34;6180487;23;20024;-92
2023/01/20 00:41:10;;;;;;;57.17;22.58;;;;;;;1.35;95.37;99404.91;6155489;23;20027;-92
2023/01/20 00:43:37;;;;;;;57.22;23.35;;;;;;;1.35;95.48;99412.75;6156330;23;20035;-93
2023/01/20 00:46:04;;;;;;;62.10;22.95;;;;;;;1.39;95.26;99407.25;6181284;23;20445;-93
2023/01/20 00:48:32;;;;;;;54.88;21.23;;;;;;;1.38;95.29;99408.22;6155561;23;20071;-92
2023/01/20 00:50:59;;;;;;;62.28;24.00;;;;;;;1.35;95.32;99413.63;6155110;23;20299;-91
2023/01/20 00:53:25;;;;;;;53.85;23.67;;;;;;;1.32;95.97;99415.56;6131660;23;20021;-92
2023/01/20 00:55:52;;;;;;;57.63;23.42;;;;;;;1.31;96.20;99422.56;6155008;23;20365;-91
2023/01/20 00:58:19;;;;;;;56.75;22.02;;;;;;;1.30;96.13;99419.13;6154899;23;20028;-85
2023/01/20 01:00:47;;;;;;;55.53;21.02;;;;;;;1.29;96.27;99429.66;6156346;23;20021;-91
2023/01/20 01:03:14;;;;;;;53.80;20.73;;;;;;;1.27;96.26;99428.88;6130997;23;20020;-92
2023/01/20 01:05:42;;;;;;;56.80;22.05;;;;;;;1.29;96.12;99437.50;6154237;23;20036;-90
2023/01/20 01:08:09;;;;;;;59.75;22.35;;;;;;;1.30;96.25;99436.59;6154431;23;20028;-91
2023/01/20 01:10:36;;;;;;;54.33;21.15;;;;;;;1.29;96.20;99440.94;6130474;23;20026;-91
2023/01/20 01:13:04;;;;;;;55.60;22.20;;;;;;;1.30;95.96;99444.44;6154569;23;20025;-91
2023/01/20 01:15:30;;;;;;;56.13;22.70;;;;;;;1.31;96.04;99443.50;6180183;23;20449;-92
2023/01/20 01:17:57;;;;;;;59.97;23.05;;;;;;;1.32;95.67;99441.72;6153586;23;20055;-91
2023/01/20 01:20:25;;;;;;;53.90;23.17;;;;;;;1.36;95.74;99441.44;6154546;23;20341;-91
2023/01/20 01:22:52;;;;;;;52.70;22.25;;;;;;;1.38;95.70;99449.22;6154687;23;20409;-84
2023/01/20 01:25:19;;;;;;;51.67;20.90;;;;;;;1.44;94.93;99451.47;6154768;23;20091;-91
2023/01/20 01:27:45;;;;;;;52.60;21.88;;;;;;;1.38;95.49;99457.06;6154379;23;20091;-91
2023/01/20 01:30:12;;;;;;;51.30;21.98;;;;;;;1.34;95.92;99461.63;6155782;23;20252;-91
2023/01/20 01:32:39;;;;;;;58.63;24.23;;;;;;;1.33;95.99;99466.97;6178905;23;20028;-92
2023/01/20 01:35:06;;;;;;;52.88;21.90;;;;;;;1.35;95.79;99465.94;6205071;23;20028;-90
2023/01/20 01:37:33;;;;;;;57.72;23.55;;;;;;;1.32;96.11;99466.09;6154769;23;20445;-91
2023/01/20 01:39:59;;;;;;;51.80;22.35;;;;;;;1.38;95.67;99468.38;6129746;23;20020;-91
2023/01/20 01:42:26;;;;;;;56.83;22.50;;;;;;;1.39;95.41;99477.91;6179447;23;20449;-91
2023/01/20 01:45:11;;;;;;;57.33;21.50;;;;;;;1.36;95.67;99483.31;6179054;23;20016;-92
2023/01/20 01:47:43;;;;;;;53.50;22.23;;;;;;;1.41;95.36;99481.28;6177050;23;20353;-91
2023/01/20 01:50:13;;;;;;;54.13;20.83;;;;;;;1.42;95.62;99482.94;6129545;23;20087;-91
2023/01/20 01:52:43;;;;;;;54.30;21.55;;;;;;;1.39;95.48;99484.91;6154825;23;20025;-91
2023/01/20 01:55:10;;;;;;;49.28;20.73;;;;;;;1.41;95.38;99488.28;6179449;23;20364;-90
2023/01/20 01:57:37;;;;;;;53.47;22.08;;;;;;;1.38;95.38;99491.91;6178080;23;20082;-90
2023/01/20 02:00:05;;;;;;;48.28;21.30;;;;;;;1.37;95.36;99486.75;6179072;23;20099;-91
2023/01/20 02:02:40;;;;;;;54.67;21.13;;;;;;;1.37;95.68;99486.75;6130479;23;20047;-90
2023/01/20 02:05:07;;;;;;;49.00;21.88;;;;;;;1.32;96.17;99489.63;6153885;23;20024;-89
2023/01/20 02:07:34;;;;;;;49.85;21.42;;;;;;;1.37;95.85;99487.59;6153544;23;20032;-91
2023/01/20 02:10:01;;;;;;;56.40;23.70;;;;;;;1.41;95.52;99489.13;6178792;23;20070;-93
2023/01/20 02:12:28;;;;;;;55.22;20.17;;;;;;;1.39;95.51;99490.16;6204710;23;22399;-92
2023/01/20 02:14:57;;;;;;;51.65;20.75;;;;;;;1.39;95.13;99488.38;6153803;23;20016;-90
2023/01/20 02:17:33;;;;;;;44.28;19.33;;;;;;;1.30;95.89;99492.34;6153418;23;20029;-92
2023/01/20 02:20:25;;;;;;;43.05;19.67;;;;;;;1.27;96.20;99489.91;6128839;23;20032;-83
2023/01/20 02:23:13;;;;;;;42.28;20.08;;;;;;;1.33;95.67;99490.50;6124403;23;20024;-91
2023/01/20 02:26:01;;;;;;;45.77;19.83;;;;;;;1.27;95.54;99492.53;6178460;23;20031;-92
2023/01/20 02:29:08;;;;;;;50.90;20.55;;;;;;;1.30;95.49;99491.50;6107057;23;20020;-92
2023/01/20 02:32:07;;;;;;;46.22;19.42;;;;;;;1.26;96.20;99498.66;6128942;23;20016;-92
2023/01/20 02:34:46;;;;;;;49.92;20.48;;;;;;;1.24;96.45;99503.13;6152856;23;20084;-92
2023/01/20 02:37:16;;;;;;;47.03;19.92;;;;;;;1.25;96.38;99501.38;6176815;23;20080;-92
2023/01/20 02:40:07;;;;;;;52.95;20.70;;;;;;;1.21;95.71;99510.31;6129198;23;20024;-90
2023/01/20 02:43:03;;;;;;;54.63;22.17;;;;;;;1.19;96.24;99504.31;6126740;23;20020;-91
2023/01/20 02:45:45;;;;;;;57.80;24.90;;;;;;;1.22;95.94;99505.03;6120629;23;20020;-92
2023/01/20 02:48:15;;;;;;;69.00;26.60;;;;;;;1.24;95.93;99504.91;6153436;23;20016;-92
2023/01/20 02:50:47;;;;;;;54.35;22.85;;;;;;;1.29;95.83;99503.72;6154881;23;20047;-91
2023/01/20 02:53:16;;;;;;;52.15;22.83;;;;;;;1.35;95.41;99512.16;6178029;23;20038;-89
2023/01/20 02:55:47;;;;;;;51.90;22.02;;;;;;;1.35;95.14;99518.25;6180296;23;20396;-91
2023/01/20 02:58:30;;;;;;;54.40;21.42;;;;;;;1.38;94.98;99527.72;6153544;23;20023;-90
2023/01/20 03:01:01;;;;;;;51.10;22.02;;;;;;;1.36;95.20;99522.56;6176986;23;20020;-92
2023/01/20 03:03:34;;;;;;;52.08;22.55;;;;;;;1.39;94.91;99529.38;6129198;23;20382;-92
2023/01/20 03:06:03;;;;;;;52.93;23.37;;;;;;;1.40;94.72;99526.69;6179840;23;20020;-92
2023/01/20 03:08:31;;;;;;;46.38;21.00;;;;;;;1.41;95.01;99524.91;6128254;23;20027;-92
2023/01/20 03:11:04;;;;;;;51.53;22.33;;;;;;;1.43;95.09;99531.75;6128239;23;20025;-92
2023/01/20 03:13:45;;;;;;;48.08;20.63;;;;;;;1.33;95.61;99530.56;6129131;23;20020;-92
2023/01/20 03:16:17;;;;;;;41.58;19.58;;;;;;;1.39;95.60;99534.63;6152218;23;20096;-92
2023/01/20 03:18:44;;;;;;;47.08;20.42;;;;;;;1.35;96.09;99547.03;6152124;23;20024;-91
2023/01/20 03:21:11;;;;;;;44.45;20.30;;;;;;;1.39;95.50;99538.06;6153804;23;20028;-92
2023/01/20 03:23:42;;;;;;;42.22;19.95;;;;;;;1.36;95.78;99542.66;6179273;23;20024;-92
2023/01/20 03:26:11;;;;;;;45.45;21.23;;;;;;;1.35;95.96;99544.41;6154599;23;20037;-90
2023/01/20 03:28:40;;;;;;;47.15;21.65;;;;;;;1.39;95.58;99543.31;6155624;23;20031;-87
2023/01/20 03:31:20;;;;;;;49.67;20.10;;;;;;;1.37;95.68;99549.56;6157065;23;20016;-91
2023/01/20 03:33:48;;;;;;;46.63;21.15;;;;;;;1.37;95.81;99549.56;6156263;23;20023;-92
2023/01/20 03:36:15;;;;;;;55.00;23.30;;;;;;;1.38;95.73;99556.50;6131625;23;20055;-91
2023/01/20 03:38:43;;;;;;;51.40;22.60;;;;;;;1.33;96.12;99551.50;6156203;23;20024;-90
2023/01/20 03:41:36;;;;;;;49.15;21.45;;;;;;;1.28;96.60;99564.81;6156110;23;20024;-91
2023/01/20 03:44:08;;;;;;;46.17;20.30;;;;;;;1.35;96.46;99559.25;6203400;23;20021;-91
2023/01/20 03:46:57;;;;;;;48.72;21.17;;;;;;;1.32;96.49;99565.50;6155087;23;20016;-91
2023/01/20 03:49:50;;;;;;;47.65;21.48;;;;;;;1.30;96.59;99572.59;6077354;23;20603;-92
2023/01/20 03:52:30;;;;;;;47.92;21.75;;;;;;;1.32;96.55;99567.28;6178567;23;20020;-91
2023/01/20 03:55:23;;;;;;;54.20;22.38;;;;;;;1.35;96.27;99564.47;6099331;23;20017;-91
2023/01/20 03:57:54;;;;;;;50.95;22.10;;;;;;;1.33;96.24;99574.22;6156218;23;20028;-91
2023/01/20 04:00:22;;;;;;;45.30;19.77;;;;;;;1.30;96.25;99578.66;6156559;23;20017;-92
2023/01/20 04:02:52;;;;;;;47.33;21.77;;;;;;;1.32;96.15;99578.56;6106536;23;20027;-90
2023/01/20 04:05:19;;;;;;;45.70;20.35;;;;;;;1.34;96.03;99581.94;6156181;23;20029;-92
2023/01/20 04:07:45;;;;;;;52.80;22.42;;;;;;;1.34;96.07;99578.50;6155578;23;20699;-92
2023/01/20 04:10:15;;;;;;;51.25;23.05;;;;;;;1.34;96.16;99579.34;6156236;23;20056;-90
2023/01/20 04:12:42;;;;;;;48.65;21.20;;;;;;;1.36;95.91;99581.88;6153837;23;20361;-91
2023/01/20 04:15:09;;;;;;;46.03;20.50;;;;;;;1.35;96.26;99585.41;6130791;23;20471;-91
2023/01/20 04:17:36;;;;;;;48.45;22.05;;;;;;;1.33;96.20;99585.50;6179548;23;20029;-90
2023/01/20 04:20:08;;;;;;;50.53;20.77;;;;;;;1.33;96.09;99593.34;6154807;23;20039;-90
2023/01/20 04:22:47;;;;;;;45.75;20.23;;;;;;;1.27;96.28;99593.66;6152852;23;20437;-87
2023/01/20 04:25:24;;;;;;;44.45;19.85;;;;;;;1.25;96.20;99595.56;6152765;23;20027;-90
2023/01/20 04:27:51;;;;;;;37.55;18.85;;;;;;;1.28;96.47;99601.44;6103731;23;20091;-92
2023/01/20 04:30:18;;;;;;;40.33;19.73;;;;;;;1.29;96.26;99597.06;6153490;23;20016;-90
2023/01/20 04:32:45;;;;;;;45.33;20.17;;;;;;;1.26;96.25;99605.91;6176296;23;20020;-90
2023/01/20 04:35:13;;;;;;;44.90;19.90;;;;;;;1.30;96.09;99606.59;6153996;23;20040;-91
2023/01/20 04:37:40;;;;;;;43.70;20.10;;;;;;;1.29;96.21;99607.50;6155093;23;20437;-89
2023/01/20 04:40:08;;;;;;;45.70;19.73;;;;;;;1.29;96.18;99607.50;6153405;23;20027;-91
2023/01/20 04:42:35;;;;;;;40.70;20.40;;;;;;;1.32;95.89;99609.13;6153935;23;20043;-91
2023/01/20 04:45:02;;;;;;;43.97;21.48;;;;;;;1.34;95.89;99615.13;6178608;23;20056;-92
2023/01/20 04:47:32;;;;;;;45.38;20.00;;;;;;;1.28;95.73;99606.69;6128713;23;20020;-90
2023/01/20 04:49:59;;;;;;;43.97;19.02;;;;;;;1.26;95.49;99611.13;6128386;23;20027;-89
2023/01/20 04:52:26;;;;;;;41.03;20.85;;;;;;;1.27;95.96;99612.84;6153769;23;20017;-89
2023/01/20 04:54:53;;;;;;;46.25;19.83;;;;;;;1.25;95.99;99619.09;6129357;23;20021;-89
2023/01/20 04:57:19;;;;;;;44.65;21.15;;;;;;;1.26;95.74;99619.00;6153200;23;20069;-88
2023/01/20 04:59:46;;;;;;;44.90;20.70;;;;;;;1.24;95.72;99620.00;6179423;23;20482;-89
2023/01/20 05:02:13;;;;;;;43.78;20.60;;;;;;;1.29;95.75;99625.81;6152816;23;20025;-89
2023/01/20 05:04:40;;;;;;;46.47;21.60;;;;;;;1.28;95.64;99630.22;6129229;23;20017;-88
2023/01/20 05:07:06;;;;;;;44.15;21.55;;;;;;;1.27;95.77;99625.06;6128438;23;20044;-88
2023/01/20 05:09:33;;;;;;;44.88;20.75;;;;;;;1.29;95.67;99631.91;6127749;23;20021;-89
2023/01/20 05:12:00;;;;;;;51.15;21.15;;;;;;;1.28;95.75;99630.22;6153899;23;20016;-88
2023/01/20 05:14:26;;;;;;;42.58;19.67;;;;;;;1.23;95.82;99634.84;6153401;23;20318;-88
2023/01/20 05:16:53;;;;;;;40.17;19.38;;;;;;;1.24;96.21;99640.91;6127966;23;20021;-87
2023/01/20 05:19:20;;;;;;;47.17;19.10;;;;;;;1.22;96.47;99646.25;6178102;23;20027;-89
2023/01/20 05:21:47;;;;;;;43.63;19.67;;;;;;;1.20;96.60;99639.41;6178283;23;20074;-89
2023/01/20 05:24:13;;;;;;;44.60;20.83;;;;;;;1.13;96.51;99641.50;6129127;23;20021;-92
2023/01/20 05:26:40;;;;;;;42.20;20.90;;;;;;;1.16;96.43;99640.50;6180559;23;20040;-86
2023/01/20 05:29:08;;;;;;;43.65;20.20;;;;;;;1.13;96.50;99645.88;6178077;23;20028;-86
2023/01/20 05:31:36;;;;;;;42.30;20.98;;;;;;;1.16;96.21;99651.78;6127643;23;20032;-85
2023/01/20 05:34:03;;;;;;;43.53;20.75;;;;;;;1.15;96.03;99654.50;6152622;23;20016;-85
2023/01/20 05:36:31;;;;;;;44.25;20.67;;;;;;;1.13;96.24;99656.34;6153050;23;20021;-85
2023/01/20 05:38:58;;;;;;;46.70;21.52;;;;;;;1.15;96.38;99659.72;6154019;23;20031;-86
2023/01/20 05:41:25;;;;;;;48.38;21.60;;;;;;;1.14;96.70;99663.25;6178423;23;20031;-86
2023/01/20 05:43:52;;;;;;;43.50;21.08;;;;;;;1.17;96.67;99668.31;6129167;23;20034;-87
2023/01/20 05:46:20;;;;;;;50.70;23.10;;;;;;;1.19;96.16;99667.31;6153316;23;20032;-86
2023/01/20 05:48:46;;;;;;;53.53;23.27;;;;;;;1.24;96.12;99677.53;6177941;23;20027;-85
2023/01/20 05:51:13;;;;;;;50.78;22.90;;;;;;;1.24;95.90;99682.78;6178582;23;20017;-86
2023/01/20 05:53:40;;;;;;;57.65;23.67;;;;;;;1.22;95.97;99682.88;6153249;23;20024;-87
2023/01/20 05:56:07;;;;;;;54.75;23.80;;;;;;;1.19;95.42;99685.63;6153921;23;20033;-84
2023/01/20 05:58:33;;;;;;;54.00;22.70;;;;;;;1.12;95.80;99691.25;6202871;23;20083;-86
2023/01/20 06:01:09;;;;;;;46.88;21.67;;;;;;;1.07;95.87;99689.75;6153977;23;20096;-86
2023/01/20 06:03:37;;;;;;;50.22;22.63;;;;;;;1.16;95.77;99696.25;6153544;23;20029;-86
2023/01/20 06:06:06;;;;;;;51.97;22.23;;;;;;;1.19;95.56;99697.84;6178340;23;20028;-86
2023/01/20 06:08:33;;;;;;;46.13;21.30;;;;;;;1.16;95.35;99695.41;6151706;23;20326;-85
2023/01/20 06:11:00;;;;;;;49.00;21.00;;;;;;;1.17;95.24;99700.56;6153433;23;20461;-85
2023/01/20 06:13:27;;;;;;;44.97;21.20;;;;;;;1.14;95.04;99710.31;6153551;23;20046;-86
2023/01/20 06:15:54;;;;;;;49.33;20.95;;;;;;;1.14;95.33;99705.94;6153718;23;20487;-86
2023/01/20 06:18:22;;;;;;;49.08;21.65;;;;;;;1.15;95.39;99709.41;6127446;23;20477;-86
2023/01/20 06:20:48;;;;;;;49.15;21.92;;;;;;;1.17;94.99;99704.94;6178493;23;20028;-86
2023/01/20 06:23:15;;;;;;;51.38;21.92;;;;;;;1.13;95.40;99706.88;6178194;23;20047;-86
2023/01/20 06:25:42;;;;;;;48.60;21.75;;;;;;;1.15;95.13;99710.25;6203874;23;20086;-85
2023/01/20 06:28:10;;;;;;;49.80;21.88;;;;;;;1.10;94.95;99714.03;6153303;23;20514;-86
2023/01/20 06:30:37;;;;;;;50.40;22.02;;;;;;;1.06;95.21;99714.19;6153319;23;20017;-86
2023/01/20 06:33:09;;;;;;;44.33;20.08;;;;;;;1.02;95.44;99720.50;6177490;23;20433;-86
2023/01/20 06:35:36;;;;;;;51.10;22.70;;;;;;;1.00;95.34;99714.50;6178220;23;20086;-87
2023/01/20 06:38:03;;;;;;;46.47;21.30;;;;;;;1.04;94.96;99729.13;6177739;23;20094;-84
2023/01/20 06:40:30;;;;;;;45.75;21.08;;;;;;;1.07;94.99;99731.56;6177901;23;20016;-86
2023/01/20 06:42:57;;;;;;;51.95;22.38;;;;;;;1.06;95.07;99729.88;6153123;23;20025;-88
2023/01/20 06:45:24;;;;;;;58.05;25.48;;;;;;;1.06;95.08;99735.09;6127504;23;20075;-86
2023/01/20 06:47:50;;;;;;;57.28;25.40;;;;;;;1.04;95.10;99733.47;6128854;23;20028;-87
2023/01/20 06:50:17;;;;;;;52.15;22.52;;;;;;;1.02;94.79;99738.81;6178050;23;20356;-87
2023/01/20 06:52:44;;;;;;;54.75;23.85;;;;;;;1.00;94.60;99740.66;6153947;23;20070;-86
2023/01/20 06:55:10;;;;;;;53.47;23.67;;;;;;;0.96;94.77;99746.94;6152684;23;20025;-87
2023/01/20 06:57:37;;;;;;;50.47;23.15;;;;;;;0.99;94.70;99754.66;6177684;23;20472;-86
2023/01/20 07:00:05;;;;;;;63.83;26.25;;;;;;;0.96;95.02;99753.94;6178274;23;20019;-87
2023/01/20 07:02:31;;;;;;;86.55;31.30;;;;;;;0.96;94.56;99759.19;6104160;23;20024;-87
2023/01/20 07:04:59;;;;;;;85.63;31.50;;;;;;;0.99;94.59;99769.47;6177577;23;20507;-86
2023/01/20 07:07:26;;;;;;;75.53;31.60;;;;;;;0.93;94.31;99777.63;6153734;23;20023;-86
2023/01/20 07:09:53;;;;;;;59.08;25.05;;;;;;;0.89;94.48;99778.69;6177254;23;20302;-87
2023/01/20 07:12:20;;;;;;;53.85;24.25;;;;;;;0.93;95.49;99778.47;6152817;23;20021;-87
2023/01/20 07:14:47;;;;;;;56.33;24.60;;;;;;;0.95;95.41;99779.25;6177950;23;20020;-87
2023/01/20 07:17:13;;;;;;;57.55;24.90;;;;;;;0.97;95.29;99782.63;6178086;23;20475;-88
2023/01/20 07:19:40;;;;;;;53.08;25.85;;;;;;;0.97;94.63;99779.19;6128546;23;20027;-87
2023/01/20 07:22:07;;;;;;;70.53;32.85;;;;;;;0.99;94.10;99791.25;6152776;23;20020;-87
2023/01/20 07:24:34;;;;;;;90.47;35.78;;;;;;;0.95;94.31;99792.31;6152351;23;20483;-86
2023/01/20 07:27:01;;;;;;;90.75;34.95;;;;;;;1.00;94.53;99802.56;6152340;23;20040;-86
2023/01/20 07:29:27;;;;;;;72.78;32.15;;;;;;;1.01;94.75;99801.63;6152097;23;20449;-86
2023/01/20 07:31:54;;;;;;;80.63;34.35;;;;;;;1.00;94.52;99803.41;6178204;23;20021;-87
2023/01/20 07:34:21;;;;;;;67.97;29.45;;;;;;;1.01;94.68;99810.31;6152486;23;20385;-87
2023/01/20 07:36:51;;;;;;;60.75;26.30;;;;;;;1.04;94.58;99812.78;6153420;23;20024;-86
2023/01/20 07:39:18;;;;;;;58.85;29.48;;;;;;;1.00;95.10;99819.09;6127774;23;20025;-87
2023/01/20 07:41:49;;;;;;;62.80;30.10;;;;;;;1.01;94.70;99820.78;6175634;23;20447;-86
2023/01/20 07:44:16;;;;;;;60.22;27.25;;;;;;;1.00;94.61;99829.53;6128946;23;20024;-86
2023/01/20 07:46:42;;;;;;;55.38;23.80;;;;;;;1.01;94.82;99831.22;6151724;23;20020;-87
2023/01/20 07:49:10;;;;;;;64.18;25.48;;;;;;;1.04;94.83;99838.06;6178115;23;20075;-86
2023/01/20 07:51:38;;;;;;;62.95;25.33;;;;;;;1.05;94.45;99838.00;6178407;23;20036;-87
2023/01/20 07:54:05;;;;;;;59.58;26.08;;;;;;;1.05;94.56;99843.25;6128867;23;20104;-86
2023/01/20 07:56:32;;;;;;;72.10;27.23;;;;;;;1.05;94.38;99842.41;6201904;23;20032;-85
2023/01/20 07:58:59;;;;;;;50.97;23.15;;;;;;;1.05;93.44;99842.41;6177233;23;20021;-86
2023/01/20 08:01:30;;;;;;;50.25;22.40;;;;;;;1.00;92.56;99857.47;6153149;23;20028;-87
2023/01/20 08:04:01;;;;;;;46.42;23.13;;;;;;;0.99;92.21;99863.59;6152024;23;20098;-87
2023/01/20 08:06:28;;;;;;;49.60;22.33;;;;;;;1.00;92.07;99870.53;6128619;23;20016;-86
2023/01/20 08:08:55;;;;;;;50.97;21.95;;;;;;;0.99;92.21;99869.69;6201750;23;20029;-86
2023/01/20 08:11:24;;;;;;;51.40;23.85;;;;;;;1.05;92.00;99871.16;6177555;23;20437;-86
2023/01/20 08:13:51;;;;;;;50.35;21.45;;;;;;;1.03;92.18;99876.47;6150443;23;20016;-88
2023/01/20 08:16:18;;;;;;;46.05;21.02;;;;;;;1.05;91.87;99879.00;6154131;23;20058;-87
2023/01/20 08:18:45;;;;;;;52.35;22.55;;;;;;;1.07;91.57;99885.84;6155056;23;20461;-85
2023/01/20 08:21:18;;;;;;;47.60;21.25;;;;;;;1.05;91.63;99886.84;6154436;23;20031;-86
2023/01/20 08:23:45;;;;;;;53.75;22.50;;;;;;;1.03;91.35;99884.31;6153900;23;20449;-87
2023/01/20 08:26:12;;;;;;;44.13;20.25;;;;;;;1.00;91.36;99888.84;6154405;23;20020;-86
2023/01/20 08:28:38;;;;;;;48.63;21.77;;;;;;;1.01;91.33;99890.53;6154175;23;20441;-86
2023/01/20 08:31:14;;;;;;;49.10;21.65;;;;;;;0.91;91.01;99897.97;6179765;23;20032;-86
2023/01/20 08:33:42;;;;;;;49.17;21.75;;;;;;;0.97;91.35;99896.84;6152725;23;20025;-86
2023/01/20 08:36:15;;;;;;;46.92;22.63;;;;;;;0.95;91.31;99896.06;6178436;23;20100;-86
2023/01/20 08:38:42;;;;;;;;;;;;;;;0.75;90.99;99897.84;6154534;23;20453;-87
2023/01/20 08:41:12;;;;;;;52.95;21.40;;;;;;;0.89;91.44;99907.66;6153883;23;19970;-82
2023/01/20 08:43:39;;;;;;;52.03;22.45;;;;;;;0.94;91.68;99908.28;6154344;23;20013;-86
2023/01/20 08:46:08;;;;;;;47.38;21.10;;;;;;;0.92;91.29;99912.75;6154070;23;20075;-86
2023/01/20 08:48:36;;;;;;;48.22;21.30;;;;;;;0.98;91.48;99909.81;6178317;23;20021;-87
2023/01/20 08:51:06;;;;;;;47.47;21.83;;;;;;;1.00;91.51;99912.38;6129427;23;20365;-86
2023/01/20 08:53:33;;;;;;;52.45;21.90;;;;;;;1.00;92.01;99908.00;6154062;23;20047;-86
2023/01/20 08:56:01;;;;;;;46.08;21.05;;;;;;;1.02;91.97;99915.78;6179843;23;20465;-87
2023/01/20 08:58:28;;;;;;;48.75;22.90;;;;;;;0.98;91.54;99914.22;6177844;23;20028;-86
2023/01/20 09:00:55;;;;;;;50.78;22.83;;;;;;;0.95;91.66;99915.19;6154055;23;20028;-86
2023/01/20 09:03:22;;;;;;;49.47;22.08;;;;;;;1.05;91.65;99913.00;6154711;23;20458;-86
2023/01/20 09:05:48;;;;;;;50.75;22.35;;;;;;;1.07;91.63;99921.63;6179147;23;20024;-87
2023/01/20 09:08:16;;;;;;;55.50;22.90;;;;;;;1.02;90.97;99919.22;6152861;23;20392;-86
2023/01/20 09:10:44;;;;;;;49.72;22.75;;;;;;;1.01;90.41;99924.50;6179041;23;20025;-85
2023/01/20 09:13:11;;;;;;;43.20;20.60;;;;;;;0.98;90.68;99928.13;6179369;23;20071;-86
2023/01/20 09:15:38;;;;;;;52.38;21.88;;;;;;;1.04;90.74;99927.84;6177985;23;20032;-86
2023/01/20 09:18:04;;;;;;;47.15;21.10;;;;;;;1.12;90.29;99926.63;6153750;23;20091;-85
2023/01/20 09:20:31;;;;;;;48.78;22.33;;;;;;;1.08;90.14;99929.38;6178869;23;20013;-87
2023/01/20 09:23:01;;;;;;;51.03;23.95;;;;;;;1.09;89.95;99927.59;6153700;23;20518;-87
2023/01/20 09:25:28;;;;;;;45.63;20.40;;;;;;;1.11;90.29;99940.63;6150792;23;20029;-86
2023/01/20 09:27:59;;;;;;;46.63;20.88;;;;;;;1.17;90.49;99941.19;6128344;23;20333;-87
2023/01/20 09:30:26;;;;;;;40.75;18.90;;;;;;;1.20;90.31;99943.66;6153627;23;20094;-84
2023/01/20 09:32:55;;;;;;;40.50;19.15;;;;;;;1.21;90.27;99939.25;6129812;23;20028;-86
2023/01/20 09:35:21;;;;;;;48.15;20.42;;;;;;;1.18;90.34;99945.47;6178213;23;20032;-86
2023/01/20 09:44:07;;;;;;;47.90;19.60;;;;;;;1.16;89.39;99951.72;6147863;23;20359;-87
2023/01/20 09:47:18;;;;;;;44.22;19.92;;;;;;;1.17;89.11;99961.25;6176344;23;20021;-87
2023/01/20 09:55:27;;;;;;;51.55;21.63;;;;;;;1.29;90.20;99971.97;6155969;23;20398;-87
2023/01/20 09:58:20;;;;;;;51.05;21.98;;;;;;;1.32;90.50;99973.59;6153375;23;20091;-86
2023/01/20 10:00:56;;;;;;;44.42;20.83;;;;;;;1.35;90.68;99973.47;6114648;23;20412;-86
2023/01/20 10:03:50;;;;;;;48.03;20.50;;;;;;;1.32;89.99;99976.19;6201190;23;20453;-88
2023/01/20 10:06:23;;;;;;;41.75;19.48;;;;;;;1.34;89.35;99974.38;6127378;23;20648;-86
2023/01/20 10:08:54;;;;;;;43.05;19.88;;;;;;;1.44;89.45;99982.63;6201333;23;20333;-84
2023/01/20 10:11:37;;;;;;;43.13;20.77;;;;;;;1.42;88.64;99977.44;6152838;23;20117;-83
2023/01/20 10:14:23;;;;;;;49.40;20.42;;;;;;;1.39;87.94;99984.63;6128379;23;20024;-87
2023/01/20 10:17:11;;;;;;;48.67;21.63;;;;;;;1.40;88.58;99987.16;6151920;23;20020;-86
2023/01/20 10:20:02;;;;;;;52.80;20.58;;;;;;;1.43;88.50;99986.16;6155212;23;20053;-86
2023/01/20 10:22:44;;;;;;;42.80;19.95;;;;;;;1.43;88.10;99989.63;6110530;23;20024;-87
2023/01/20 10:25:32;;;;;;;49.58;21.65;;;;;;;1.47;88.46;99983.31;6201110;23;20040;-86
2023/01/20 10:28:10;;;;;;;50.13;21.92;;;;;;;1.51;88.55;99989.25;6155090;23;20043;-87
2023/01/20 10:30:37;;;;;;;56.72;23.13;;;;;;;1.47;88.92;99990.31;6127498;23;20017;-86
2023/01/20 10:33:12;;;;;;;50.47;22.80;;;;;;;1.48;88.34;99990.25;6178510;23;20086;-87
2023/01/20 10:35:45;;;;;;;43.70;22.45;;;;;;;1.45;88.23;99995.66;6177185;23;20027;-86
2023/01/20 10:38:58;;;;;;;55.05;22.85;;;;;;;1.46;88.61;99989.47;6152489;23;20017;-87
2023/01/20 10:41:35;;;;;;;50.42;22.05;;;;;;;1.48;88.26;99995.50;6096767;23;20134;-86
2023/01/20 10:44:05;;;;;;;47.17;21.80;;;;;;;1.50;88.52;99995.41;6153385;23;20025;-87
2023/01/20 10:46:42;;;;;;;48.13;20.48;;;;;;;1.45;88.02;99984.31;6152746;23;20453;-85
2023/01/20 10:49:29;;;;;;;47.95;18.98;;;;;;;1.51;87.84;99986.66;6174758;23;20074;-87
2023/01/20 10:52:10;;;;;;;42.97;18.63;;;;;;;1.52;88.09;99988.31;6069363;23;20403;-87
2023/01/20 10:55:17;;;;;;;41.35;20.10;;;;;;;1.64;88.33;99992.97;6058785;23;20053;-86
2023/01/20 10:57:49;;;;;;;40.78;19.10;;;;;;;1.65;87.89;99992.03;6007866;23;20026;-87
2023/01/20 11:00:21;;;;;;;45.88;20.00;;;;;;;1.64;87.54;99985.09;6106751;23;20164;-86
2023/01/20 11:02:48;;;;;;;46.17;20.95;;;;;;;1.71;88.14;99991.75;6059560;23;20022;-86
2023/01/20 11:05:26;;;;;;;45.15;20.33;;;;;;;1.68;87.35;99988.41;6108144;23;20066;-87
2023/01/20 11:07:55;;;;;;;47.00;20.30;;;;;;;1.71;87.25;99993.53;6073893;23;20082;-88
2023/01/20 11:10:28;;;;;;;42.80;20.35;;;;;;;1.74;86.73;99988.97;6034725;23;20023;-87
2023/01/20 11:12:58;;;;;;;45.00;20.48;;;;;;;1.72;86.95;99987.34;6082590;23;20026;-87
2023/01/20 11:15:30;;;;;;;47.05;21.17;;;;;;;1.66;86.52;99991.13;6035697;23;20022;-88
2023/01/20 11:18:15;;;;;;;47.50;23.10;;;;;;;1.70;87.11;99989.19;6082804;23;20410;-88
2023/01/20 11:21:08;;;;;;;50.70;21.58;;;;;;;1.62;87.56;99992.19;6082873;23;20137;-87
2023/01/20 11:23:49;;;;;;;47.78;21.13;;;;;;;1.70;87.95;100003.13;6076828;23;20469;-87
2023/01/20 11:26:19;;;;;;;44.17;20.58;;;;;;;1.80;88.40;100000.91;6152218;23;20099;-88
2023/01/20 11:28:50;;;;;;;49.00;22.13;;;;;;;1.85;88.38;99998.91;6177172;23;20032;-87
2023/01/20 11:31:17;;;;;;;43.10;19.65;;;;;;;1.85;87.72;100005.91;6152627;23;20017;-88
2023/01/20 11:33:58;;;;;;;48.00;21.50;;;;;;;1.83;87.07;100003.41;6153233;23;20099;-87
2023/01/20 11:36:25;;;;;;;45.30;20.13;;;;;;;1.82;87.42;99999.06;6199995;23;20051;-87
2023/01/20 11:38:54;;;;;;;42.92;19.35;;;;;;;1.84;87.07;100004.22;6178297;23;20433;-85
2023/01/20 11:41:27;;;;;;;47.17;20.33;;;;;;;1.86;87.41;100003.22;6152798;23;20017;-88
2023/01/20 11:43:55;;;;;;;41.30;19.00;;;;;;;1.84;86.71;99997.22;6201400;23;20039;-86
2023/01/20 11:46:32;;;;;;;37.75;18.00;;;;;;;1.91;87.08;99995.16;6153465;23;20027;-88
2023/01/20 11:49:14;;;;;;;52.03;23.13;;;;;;;1.86;86.73;100003.22;6129178;23;20482;-88
2023/01/20 11:51:50;;;;;;;49.88;23.17;;;;;;;1.92;87.06;100007.31;6128938;23;20028;-87
2023/01/20 11:54:22;;;;;;;52.67;23.70;;;;;;;1.91;87.64;100000.38;6128497;23;20463;-88